Deva Mariya — UUCU — position and weather

sailwx.info

Track history (hours):
 
Tides and Currents Weather Stations Pressure Air Temp Water Temp Dewpoint Dewpoint Depression Visibility Wind Speed Wind Dir Waves Ship Positions

Deva Mariya

Last reported at 2017-Oct-19 20:00 UTC. Time now 2017-Oct-19 20:11 UTC.
Position N 46°29' E 030°45'.

Length 94 m; draft 3.3 m.

Type: Cargo ship. MMSI: 272068700.

Date/timePositionNaut miles runAvg speedWind from/ knotsBaromVisibWave heightAir tempDewpointWater temp
2017-Oct-19 20:00N 46°29' E 030°45'0 0.0
2017-Oct-19 19:30N 46°29' E 030°45'0 0.0
2017-Oct-19 19:00N 46°29' E 030°45'1 2.4
2017-Oct-19 18:30N 46°30' E 030°46'2 4.9
2017-Oct-19 18:00N 46°31' E 030°50'2 4.7
2017-Oct-19 17:30N 46°32' E 030°53'3 5.4
2017-Oct-19 17:00N 46°32' E 030°57'3 5.5
2017-Oct-19 16:30N 46°33' E 031°00'3 5.7
2017-Oct-19 16:01N 46°34' E 031°04'3 5.5
2017-Oct-19 15:31N 46°35' E 031°08'3 5.5
2017-Oct-19 15:01N 46°35' E 031°12'3 5.7
2017-Oct-19 14:31N 46°35' E 031°16'3 5.7
2017-Oct-19 13:59N 46°35' E 031°20'3 5.3
2017-Oct-19 13:30N 46°35' E 031°24'18 5.2
2017-Oct-19 10:04N 46°35' E 031°50'2 6.0
2017-Oct-19 09:41N 46°35' E 031°53'2 5.9
2017-Oct-19 09:24N 46°34' E 031°55'2 6.0
2017-Oct-19 09:00N 46°33' E 031°59'3 5.7
2017-Oct-19 08:30N 46°32' E 032°03'4 5.6
2017-Oct-19 07:50N 46°32' E 032°08'7 5.6
2017-Oct-19 06:32N 46°33' E 032°18'0 5.6
2017-Oct-19 06:30N 46°33' E 032°19'5 5.0
2017-Oct-19 05:27N 46°33' E 032°26'0 0.2
2017-Oct-19 04:58N 46°33' E 032°26'0 0.0
2017-Oct-19 02:43N 46°33' E 032°26'0 0.0
2017-Oct-19 02:28N 46°33' E 032°26'0 0.0
2017-Oct-19 02:01N 46°33' E 032°26'0 0.0
2017-Oct-18 23:54N 46°33' E 032°26'0 0.0
2017-Oct-18 23:08N 46°33' E 032°26'0 0.0
2017-Oct-18 23:00N 46°33' E 032°26'122 3.2
2017-Oct-17 08:10N 47°35' E 035°02'1 5.4
2017-Oct-17 08:00N 47°35' E 035°03'4 5.3
2017-Oct-17 07:16N 47°38' E 035°06'1 5.4
2017-Oct-17 07:00N 47°40' E 035°07'3 5.5
2017-Oct-17 06:30N 47°42' E 035°08'3 5.3
2017-Oct-17 06:00N 47°45' E 035°10'3 5.2
2017-Oct-17 05:30N 47°47' E 035°10'2 4.8
2017-Oct-17 05:00N 47°49' E 035°08'3 5.2
2017-Oct-17 04:30N 47°51' E 035°05'1 1.6
2017-Oct-17 04:00N 47°52' E 035°05'0 0.1
2017-Oct-17 03:30N 47°52' E 035°06'1 1.4
2017-Oct-17 03:00N 47°52' E 035°06'0 0.0
2017-Oct-16 19:24N 47°52' E 035°06'0 0.1
2017-Oct-16 19:01N 47°52' E 035°06'1 2.3
2017-Oct-16 18:31N 47°53' E 035°06'3 5.4
2017-Oct-16 18:00N 47°56' E 035°07'3 5.4
2017-Oct-16 17:30N 47°59' E 035°07'3 5.3
2017-Oct-16 17:01N 48°01' E 035°08'2 4.8
2017-Oct-16 16:31N 48°03' E 035°06'  
Track history (hours):
 
Tides and Currents Weather Stations Pressure Air Temp Water Temp Dewpoint Dewpoint Depression Visibility Wind Speed Wind Dir Waves Ship Positions

Deva Mariya

Last reported at 2017-Oct-19 20:00 UTC. Time now 2017-Oct-19 20:11 UTC.
Position N 46°29' E 030°45'.

Length 94 m; draft 3.3 m.

Type: Cargo ship. MMSI: 272068700.

Date/timePositionNaut miles runAvg speedWind from/ knotsBaromVisibWave heightAir tempDewpointWater temp
2017-Oct-19 20:00N 46°29' E 030°45'0 0.0
2017-Oct-19 19:30N 46°29' E 030°45'0 0.0
2017-Oct-19 19:00N 46°29' E 030°45'1 2.4
2017-Oct-19 18:30N 46°30' E 030°46'2 4.9
2017-Oct-19 18:00N 46°31' E 030°50'2 4.7
2017-Oct-19 17:30N 46°32' E 030°53'3 5.4
2017-Oct-19 17:00N 46°32' E 030°57'3 5.5
2017-Oct-19 16:30N 46°33' E 031°00'3 5.7
2017-Oct-19 16:01N 46°34' E 031°04'3 5.5
2017-Oct-19 15:31N 46°35' E 031°08'3 5.5
2017-Oct-19 15:01N 46°35' E 031°12'3 5.7
2017-Oct-19 14:31N 46°35' E 031°16'3 5.7
2017-Oct-19 13:59N 46°35' E 031°20'3 5.3
2017-Oct-19 13:30N 46°35' E 031°24'18 5.2
2017-Oct-19 10:04N 46°35' E 031°50'2 6.0
2017-Oct-19 09:41N 46°35' E 031°53'2 5.9
2017-Oct-19 09:24N 46°34' E 031°55'2 6.0
2017-Oct-19 09:00N 46°33' E 031°59'3 5.7
2017-Oct-19 08:30N 46°32' E 032°03'4 5.6
2017-Oct-19 07:50N 46°32' E 032°08'7 5.6
2017-Oct-19 06:32N 46°33' E 032°18'0 5.6
2017-Oct-19 06:30N 46°33' E 032°19'5 5.0
2017-Oct-19 05:27N 46°33' E 032°26'0 0.2
2017-Oct-19 04:58N 46°33' E 032°26'0 0.0
2017-Oct-19 02:43N 46°33' E 032°26'0 0.0
2017-Oct-19 02:28N 46°33' E 032°26'0 0.0
2017-Oct-19 02:01N 46°33' E 032°26'0 0.0
2017-Oct-18 23:54N 46°33' E 032°26'0 0.0
2017-Oct-18 23:08N 46°33' E 032°26'0 0.0
2017-Oct-18 23:00N 46°33' E 032°26'122 3.2
2017-Oct-17 08:10N 47°35' E 035°02'1 5.4
2017-Oct-17 08:00N 47°35' E 035°03'4 5.3
2017-Oct-17 07:16N 47°38' E 035°06'1 5.4
2017-Oct-17 07:00N 47°40' E 035°07'3 5.5
2017-Oct-17 06:30N 47°42' E 035°08'3 5.3
2017-Oct-17 06:00N 47°45' E 035°10'3 5.2
2017-Oct-17 05:30N 47°47' E 035°10'2 4.8
2017-Oct-17 05:00N 47°49' E 035°08'3 5.2
2017-Oct-17 04:30N 47°51' E 035°05'1 1.6
2017-Oct-17 04:00N 47°52' E 035°05'0 0.1
2017-Oct-17 03:30N 47°52' E 035°06'1 1.4
2017-Oct-17 03:00N 47°52' E 035°06'0 0.0
2017-Oct-16 19:24N 47°52' E 035°06'0 0.1
2017-Oct-16 19:01N 47°52' E 035°06'1 2.3
2017-Oct-16 18:31N 47°53' E 035°06'3 5.4
2017-Oct-16 18:00N 47°56' E 035°07'3 5.4
2017-Oct-16 17:30N 47°59' E 035°07'3 5.3
2017-Oct-16 17:01N 48°01' E 035°08'2 4.8
2017-Oct-16 16:31N 48°03' E 035°06'  

Dump ship's entire track history